Time;durP1;ratioP1;P1;durP2;ratioP2;P2;SDS_P1;SDS_P2;PMS_P1;PMS_P2;Temp;Humidity;BMP_temperature;BMP_pressure;BME280_temperature;BME280_humidity;BME280_pressure;Samples;Min_cycle;Max_cycle;Signal;HPM_P1;HPM_P2
2022/11/26 00:01:14;;;;;;;4.90;4.50;;;;;;;7.93;87.66;99912.16;5111539;27;20200;-57
2022/11/26 00:03:41;;;;;;;5.60;5.10;;;;;;;7.88;87.21;99916.53;5111676;28;20195;-57
2022/11/26 00:06:22;;;;;;;4.90;4.50;;;;;;;7.83;87.14;99918.28;5111218;28;20195;-57
2022/11/26 00:08:49;;;;;;;5.30;4.80;;;;;;;7.79;86.84;99916.59;5111443;28;20245;-57
2022/11/26 00:11:16;;;;;;;5.60;5.10;;;;;;;7.77;86.53;99918.38;5111319;28;20194;-62
2022/11/26 00:13:44;;;;;;;5.17;4.77;;;;;;;7.71;86.39;99921.00;5111612;28;20783;-62
2022/11/26 00:16:13;;;;;;;5.70;4.83;;;;;;;7.69;87.19;99930.50;5111299;28;20190;-62
2022/11/26 00:18:40;;;;;;;5.13;4.63;;;;;;;7.65;86.69;99921.09;5110973;28;20710;-62
2022/11/26 00:21:17;;;;;;;5.83;4.90;;;;;;;7.58;87.25;99922.88;5110922;28;20580;-63
2022/11/26 00:23:45;;;;;;;5.87;5.37;;;;;;;7.53;87.21;99922.06;5111465;27;20206;-63
2022/11/26 00:26:15;;;;;;;5.17;4.67;;;;;;;7.46;86.84;99916.97;5111212;28;20214;-62
2022/11/26 00:28:51;;;;;;;5.27;4.77;;;;;;;7.54;87.07;99928.97;5111046;28;20219;-63
2022/11/26 00:31:18;;;;;;;4.90;4.50;;;;;;;7.55;86.65;99929.81;5110913;28;20198;-62
2022/11/26 00:33:45;;;;;;;5.07;4.67;;;;;;;7.47;86.14;99929.88;5110962;28;20286;-62
2022/11/26 00:36:20;;;;;;;5.10;4.70;;;;;;;7.41;86.54;99931.66;5110751;28;20194;-62
2022/11/26 00:38:51;;;;;;;4.87;4.47;;;;;;;7.46;86.20;99935.03;5110803;28;20271;-62
2022/11/26 00:41:21;;;;;;;4.60;4.20;;;;;;;7.48;86.19;99939.31;5111070;28;20710;-62
2022/11/26 00:43:50;;;;;;;5.90;4.37;;;;;;;7.42;86.12;99925.63;5110932;28;20197;-61
2022/11/26 00:46:19;;;;;;;4.80;4.50;;;;;;;7.50;86.58;99931.56;5110819;28;20195;-64
2022/11/26 00:48:47;;;;;;;4.90;4.50;;;;;;;7.49;86.04;99935.88;5110621;28;20229;-57
2022/11/26 00:51:16;;;;;;;5.00;4.60;;;;;;;7.48;86.32;99925.56;5110787;28;20589;-57
2022/11/26 00:53:44;;;;;;;4.50;4.10;;;;;;;7.51;85.90;99939.31;5110759;28;20718;-62
2022/11/26 00:56:15;;;;;;;6.33;4.30;;;;;;;7.57;86.05;99940.97;5110425;28;20194;-57
2022/11/26 00:58:42;;;;;;;4.57;4.17;;;;;;;7.61;84.96;99937.47;5110617;28;20663;-63
2022/11/26 01:01:12;;;;;;;4.37;3.70;;;;;;;7.70;84.94;99937.38;5110336;28;20194;-57
2022/11/26 01:03:41;;;;;;;3.90;3.60;;;;;;;7.74;84.52;99926.16;5110317;28;20198;-62
2022/11/26 01:06:15;;;;;;;4.03;3.73;;;;;;;7.79;84.63;99931.28;5109757;28;20198;-62
2022/11/26 01:08:43;;;;;;;5.87;3.97;;;;;;;7.70;84.62;99928.78;5110082;28;20222;-62
2022/11/26 01:11:13;;;;;;;4.10;3.80;;;;;;;7.69;84.33;99934.81;5110169;28;20567;-62
2022/11/26 01:13:41;;;;;;;4.43;4.13;;;;;;;7.72;84.38;99937.38;5110142;28;20194;-63
2022/11/26 01:16:19;;;;;;;5.80;4.40;;;;;;;7.69;83.87;99940.84;5110187;28;20197;-62
2022/11/26 01:18:47;;;;;;;4.83;4.30;;;;;;;7.64;83.74;99933.16;5110023;28;20226;-62
2022/11/26 01:21:14;;;;;;;4.20;3.90;;;;;;;7.63;83.70;99935.75;5110053;28;20194;-62
2022/11/26 01:23:41;;;;;;;4.63;4.00;;;;;;;7.63;84.06;99922.84;5110057;28;20191;-61
2022/11/26 01:26:15;;;;;;;4.23;3.93;;;;;;;7.61;84.09;99925.44;5109978;28;20201;-62
2022/11/26 01:28:42;;;;;;;4.70;4.30;;;;;;;7.54;85.44;99930.69;5110041;28;20801;-60
2022/11/26 01:31:16;;;;;;;4.70;4.30;;;;;;;7.53;84.51;99931.53;5109797;28;20201;-56
2022/11/26 01:33:43;;;;;;;4.67;4.37;;;;;;;7.50;84.80;99931.56;5109941;28;20194;-60
2022/11/26 01:36:21;;;;;;;4.80;4.40;;;;;;;7.51;85.24;99930.69;5109822;28;20202;-60
2022/11/26 01:38:48;;;;;;;5.30;4.20;;;;;;;7.38;85.52;99934.25;5110229;28;20579;-62
2022/11/26 01:41:27;;;;;;;5.83;4.83;;;;;;;7.39;85.97;99935.97;5109797;28;20205;-56
2022/11/26 01:43:57;;;;;;;4.40;4.10;;;;;;;7.26;86.40;99915.44;5109886;28;20198;-56
2022/11/26 01:46:26;;;;;;;4.80;4.40;;;;;;;7.33;85.37;99920.56;5109706;28;20226;-56
2022/11/26 01:48:54;;;;;;;4.50;4.10;;;;;;;7.27;85.89;99906.81;5109557;28;20221;-57
2022/11/26 01:51:25;;;;;;;4.00;3.70;;;;;;;7.42;85.32;99923.06;5109860;28;20989;-56
2022/11/26 01:53:55;;;;;;;4.87;4.37;;;;;;;7.36;86.55;99928.25;5109691;28;20199;-57
2022/11/26 01:56:33;;;;;;;4.50;4.10;;;;;;;7.28;85.64;99924.03;5105351;28;20195;-57
2022/11/26 01:59:05;;;;;;;7.10;4.40;;;;;;;7.32;86.28;99929.16;5089238;28;20201;-61
2022/11/26 02:01:34;;;;;;;4.70;4.30;;;;;;;7.30;86.30;99926.59;5089698;28;20205;-60
2022/11/26 02:04:10;;;;;;;6.40;4.40;;;;;;;7.33;86.31;99930.88;5089274;28;20200;-60
2022/11/26 02:06:37;;;;;;;3.93;3.63;;;;;;;7.33;86.58;99934.31;5089409;28;20601;-60
2022/11/26 02:09:07;;;;;;;4.37;4.00;;;;;;;7.25;85.23;99916.31;5089195;28;20304;-60
2022/11/26 02:11:34;;;;;;;4.63;4.23;;;;;;;7.29;85.06;99937.78;5089204;28;20195;-61
2022/11/26 02:14:04;;;;;;;4.93;4.47;;;;;;;7.34;85.26;99936.00;5089516;28;20202;-61
2022/11/26 02:16:50;;;;;;;4.63;4.23;;;;;;;7.30;85.65;99942.09;5089472;28;20585;-62
2022/11/26 02:19:54;;;;;;;5.57;4.33;;;;;;;7.24;85.30;99942.13;5091781;28;20219;-62
2022/11/26 02:22:44;;;;;;;4.20;3.90;;;;;;;7.20;85.94;99946.47;5093060;28;20199;-56
2022/11/26 02:25:18;;;;;;;6.03;4.40;;;;;;;7.23;85.85;99943.00;5092864;28;20202;-61
2022/11/26 02:28:15;;;;;;;4.77;4.27;;;;;;;7.22;86.19;99944.72;5093010;28;20198;-61
2022/11/26 02:30:48;;;;;;;4.60;4.20;;;;;;;7.19;86.63;99947.34;5092829;28;20192;-61
2022/11/26 02:33:19;;;;;;;4.60;4.20;;;;;;;7.10;86.58;99944.84;5092688;28;20199;-60
2022/11/26 02:35:48;;;;;;;5.40;4.90;;;;;;;7.05;86.94;99944.00;5092768;28;20616;-61
2022/11/26 02:38:20;;;;;;;6.40;4.90;;;;;;;7.00;86.61;99955.25;5092760;28;20597;-56
2022/11/26 02:40:47;;;;;;;4.97;4.57;;;;;;;6.93;86.92;99950.13;5092614;28;20196;-60
2022/11/26 02:43:15;;;;;;;5.03;4.63;;;;;;;6.82;87.16;99948.47;5092614;28;20205;-61
2022/11/26 02:45:48;;;;;;;5.20;4.70;;;;;;;6.78;87.85;99946.78;5092628;28;20202;-61
2022/11/26 02:48:20;;;;;;;6.17;5.63;;;;;;;6.77;87.75;99945.09;5092552;28;20199;-61
2022/11/26 02:50:50;;;;;;;6.00;5.40;;;;;;;6.82;86.94;99956.22;5092618;28;20199;-57
2022/11/26 02:53:21;;;;;;;5.53;4.93;;;;;;;6.79;87.34;99956.22;5092435;28;20199;-58
2022/11/26 02:55:54;;;;;;;9.07;5.30;;;;;;;6.78;87.62;99952.78;5092622;28;20203;-56
2022/11/26 02:58:21;;;;;;;6.90;5.60;;;;;;;6.74;88.06;99958.00;5092475;28;20213;-57
2022/11/26 03:00:51;;;;;;;5.87;5.37;;;;;;;6.67;88.46;99962.31;5092257;28;20202;-56
2022/11/26 03:03:24;;;;;;;5.97;5.47;;;;;;;6.71;88.37;99960.59;5092553;28;20581;-56
2022/11/26 03:05:54;;;;;;;7.07;5.43;;;;;;;6.53;88.65;99967.59;5092146;28;20228;-56
2022/11/26 03:08:22;;;;;;;8.57;5.57;;;;;;;6.44;90.01;99972.75;5092159;28;20203;-60
2022/11/26 03:10:49;;;;;;;7.50;5.47;;;;;;;6.40;89.92;99965.94;5092118;28;20196;-61
2022/11/26 03:13:17;;;;;;;6.70;5.50;;;;;;;6.46;89.93;99985.66;5092216;28;20767;-60
2022/11/26 03:15:43;;;;;;;5.87;5.20;;;;;;;6.51;89.53;99984.78;5092065;28;20728;-60
2022/11/26 03:18:12;;;;;;;6.13;5.53;;;;;;;6.50;90.14;99982.22;5091567;28;20227;-60
2022/11/26 03:20:39;;;;;;;6.00;5.40;;;;;;;6.45;90.50;99989.09;5091963;28;20200;-57
2022/11/26 03:23:06;;;;;;;8.93;5.73;;;;;;;6.35;90.69;99977.97;5091948;28;20558;-57
2022/11/26 03:25:33;;;;;;;5.13;4.73;;;;;;;6.17;91.02;99968.59;5091852;28;20191;-55
2022/11/26 03:28:00;;;;;;;5.87;5.30;;;;;;;6.24;91.23;99984.88;5091670;28;20201;-57
2022/11/26 03:30:27;;;;;;;5.33;4.83;;;;;;;6.33;90.04;99989.13;5091319;28;20219;-57
2022/11/26 03:32:54;;;;;;;5.37;4.83;;;;;;;6.25;90.11;99996.91;5091747;28;20195;-57
2022/11/26 03:35:22;;;;;;;5.53;4.77;;;;;;;6.19;89.93;99995.22;5091677;28;20198;-60
2022/11/26 03:37:49;;;;;;;11.20;5.07;;;;;;;6.17;89.84;99999.53;5091573;28;20209;-61
2022/11/26 03:40:17;;;;;;;5.60;4.97;;;;;;;6.10;89.70;100005.53;5091372;28;20211;-61
2022/11/26 03:42:44;;;;;;;6.97;5.30;;;;;;;6.04;89.98;100007.28;5091513;28;20199;-59
2022/11/26 03:45:11;;;;;;;6.33;5.30;;;;;;;5.99;90.54;100009.00;5091177;28;20735;-62
2022/11/26 03:47:38;;;;;;;6.10;5.50;;;;;;;6.05;90.14;100024.47;5091382;28;20207;-56
2022/11/26 03:50:07;;;;;;;5.83;5.27;;;;;;;5.96;89.81;100014.19;5091262;28;20223;-56
2022/11/26 03:52:35;;;;;;;6.00;5.40;;;;;;;5.99;89.86;100025.34;5091467;28;20632;-56
2022/11/26 03:55:02;;;;;;;5.60;5.10;;;;;;;5.89;90.35;100028.78;5091192;28;20206;-55
2022/11/26 03:57:29;;;;;;;4.60;4.13;;;;;;;5.80;90.53;100029.63;5091827;28;20206;-55
2022/11/26 03:59:56;;;;;;;5.43;4.93;;;;;;;5.77;90.89;100045.09;5091137;28;20227;-56
2022/11/26 04:02:22;;;;;;;7.40;4.73;;;;;;;5.74;90.65;100039.97;5091086;28;20195;-57
2022/11/26 04:04:50;;;;;;;5.67;4.60;;;;;;;5.73;90.99;100048.53;5091085;28;20209;-56
2022/11/26 04:07:16;;;;;;;5.43;4.93;;;;;;;5.80;90.81;100055.41;5090886;28;20218;-62
2022/11/26 04:09:45;;;;;;;5.60;5.10;;;;;;;5.73;90.52;100053.69;5090757;28;20231;-56
2022/11/26 04:12:12;;;;;;;5.87;5.27;;;;;;;5.69;90.74;100056.25;5090697;28;20195;-56
2022/11/26 04:14:38;;;;;;;11.53;7.90;;;;;;;5.69;90.83;100061.41;5090734;28;20203;-56
2022/11/26 04:17:05;;;;;;;16.20;10.17;;;;;;;5.69;91.10;100066.56;5090513;28;20199;-57
2022/11/26 04:19:32;;;;;;;13.33;8.63;;;;;;;5.62;91.75;100062.28;5090363;28;20608;-57
2022/11/26 04:21:59;;;;;;;10.00;7.63;;;;;;;5.57;92.13;100063.97;5090785;28;20203;-62
2022/11/26 04:24:26;;;;;;;13.37;9.60;;;;;;;5.52;92.73;100070.88;5090676;28;20227;-62
2022/11/26 04:26:55;;;;;;;14.30;10.03;;;;;;;5.45;92.55;100041.66;5090422;28;20195;-62
2022/11/26 04:29:22;;;;;;;14.40;10.23;;;;;;;5.62;92.42;100070.00;5090572;28;20226;-62
2022/11/26 04:31:48;;;;;;;11.63;9.23;;;;;;;5.38;94.28;100076.00;5090573;28;20289;-62
2022/11/26 04:34:15;;;;;;;11.77;8.50;;;;;;;5.30;94.97;100072.56;5090714;28;20221;-62
2022/11/26 04:36:42;;;;;;;10.37;7.20;;;;;;;5.29;95.72;100069.13;5090342;28;20198;-61
2022/11/26 04:39:09;;;;;;;9.33;6.87;;;;;;;5.45;95.19;100082.84;5090274;28;20198;-61
2022/11/26 04:41:36;;;;;;;7.73;5.83;;;;;;;5.50;93.62;100080.31;5089348;28;20229;-60
2022/11/26 04:44:05;;;;;;;5.90;5.37;;;;;;;5.53;93.25;100088.03;5090422;28;20199;-62
2022/11/26 04:46:32;;;;;;;9.97;5.70;;;;;;;5.48;92.89;100088.03;5090649;28;20201;-61
2022/11/26 04:48:59;;;;;;;10.80;5.03;;;;;;;5.48;92.29;100082.88;5090101;28;20221;-61
2022/11/26 04:51:25;;;;;;;8.50;6.20;;;;;;;5.34;92.87;100087.13;5090158;28;20206;-61
2022/11/26 04:53:52;;;;;;;6.50;5.80;;;;;;;5.24;93.77;100086.25;5090103;28;20210;-61
2022/11/26 04:56:19;;;;;;;7.20;6.17;;;;;;;5.30;93.97;100095.72;5090053;28;20198;-62
2022/11/26 04:58:46;;;;;;;9.83;5.90;;;;;;;5.32;93.86;100104.28;5089902;28;20216;-61
2022/11/26 05:01:15;;;;;;;6.27;5.67;;;;;;;5.26;94.32;100107.72;5089841;28;20711;-61
2022/11/26 05:03:41;;;;;;;7.23;6.03;;;;;;;5.24;94.62;100108.56;5093899;28;20229;-58
2022/11/26 05:06:09;;;;;;;6.03;5.30;;;;;;;5.24;93.89;100116.28;5107899;28;20206;-56
2022/11/26 05:08:36;;;;;;;6.17;5.03;;;;;;;5.26;93.30;100130.03;5108825;28;20279;-57
2022/11/26 05:11:03;;;;;;;6.23;5.00;;;;;;;5.24;93.12;100134.31;5109069;28;20499;-56
2022/11/26 05:13:30;;;;;;;7.27;4.93;;;;;;;5.21;93.22;100130.00;5104253;28;20688;-58
2022/11/26 05:15:57;;;;;;;4.97;4.47;;;;;;;5.18;93.18;100118.88;5104899;28;20682;-57
2022/11/26 05:18:25;;;;;;;6.53;5.20;;;;;;;5.17;93.43;100132.59;5107619;28;20305;-56
2022/11/26 05:20:52;;;;;;;5.97;5.37;;;;;;;5.23;94.11;100142.88;5108282;28;20202;-56
2022/11/26 05:23:19;;;;;;;8.00;7.10;;;;;;;5.30;93.58;100145.50;5108372;28;20200;-56
2022/11/26 05:25:46;;;;;;;7.70;6.80;;;;;;;5.33;93.95;100142.03;5109519;28;20691;-57
2022/11/26 05:28:13;;;;;;;7.67;6.90;;;;;;;5.25;94.44;100136.03;5108853;28;20281;-57
2022/11/26 05:30:40;;;;;;;9.43;6.50;;;;;;;5.17;95.48;100140.31;5109061;28;20215;-60
2022/11/26 05:33:07;;;;;;;7.23;5.83;;;;;;;5.21;96.25;100142.00;5109187;28;20198;-61
2022/11/26 05:35:37;;;;;;;10.83;7.23;;;;;;;5.25;100.00;100141.19;5109259;28;20196;-61
2022/11/26 05:38:04;;;;;;;8.57;7.00;;;;;;;5.34;98.48;100143.75;5109299;28;20237;-56
2022/11/26 05:40:31;;;;;;;10.17;6.50;;;;;;;5.43;97.07;100146.34;5110179;28;20655;-56
2022/11/26 05:42:58;;;;;;;7.07;6.07;;;;;;;5.51;96.32;100144.69;5109933;28;20777;-62
2022/11/26 05:45:25;;;;;;;9.83;7.63;;;;;;;5.55;94.33;100148.09;5109917;28;20613;-61
2022/11/26 05:47:51;;;;;;;11.50;7.30;;;;;;;5.53;94.43;100153.22;5109851;28;20657;-62
2022/11/26 05:50:18;;;;;;;9.50;7.50;;;;;;;5.55;94.44;100155.81;5109339;28;20233;-62
2022/11/26 05:52:47;;;;;;;10.03;7.33;;;;;;;5.57;93.75;100157.53;5111895;28;20195;-57
2022/11/26 05:55:15;;;;;;;11.53;7.43;;;;;;;5.63;93.95;100157.56;5113630;28;20201;-62
2022/11/26 05:57:42;;;;;;;11.37;7.93;;;;;;;5.72;93.05;100160.16;5112975;28;20206;-57
2022/11/26 06:00:10;;;;;;;12.27;8.03;;;;;;;5.72;92.65;100159.28;5113222;28;20199;-57
2022/11/26 06:02:38;;;;;;;11.40;7.60;;;;;;;5.74;93.00;100162.72;5113705;28;20208;-57
2022/11/26 06:05:06;;;;;;;14.67;8.73;;;;;;;5.83;92.99;100167.88;5113530;28;20606;-56
2022/11/26 06:07:33;;;;;;;9.20;8.23;;;;;;;5.84;92.72;100169.59;5113688;28;20201;-57
2022/11/26 06:10:01;;;;;;;13.73;8.80;;;;;;;5.89;92.03;100167.03;5113437;28;20311;-57
2022/11/26 06:12:28;;;;;;;15.13;9.77;;;;;;;5.84;92.09;100167.88;5113418;28;20286;-57
2022/11/26 06:14:55;;;;;;;13.03;9.73;;;;;;;5.97;91.69;100180.81;5113434;28;20201;-57
2022/11/26 06:17:22;;;;;;;16.80;10.00;;;;;;;5.95;91.36;100173.06;5113365;28;20199;-62
2022/11/26 06:19:49;;;;;;;15.60;10.70;;;;;;;5.92;91.60;100177.38;5113156;28;20223;-63
2022/11/26 06:22:15;;;;;;;12.73;9.37;;;;;;;5.90;91.35;100173.91;5113567;28;20776;-62
2022/11/26 06:24:42;;;;;;;16.20;10.17;;;;;;;5.97;91.48;100184.25;5113223;28;20294;-63
2022/11/26 06:27:11;;;;;;;14.13;10.30;;;;;;;6.13;91.57;100177.38;5113206;27;20575;-61
2022/11/26 06:29:38;;;;;;;17.80;10.57;;;;;;;6.23;90.74;100181.66;5113759;28;20225;-62
2022/11/26 06:32:05;;;;;;;14.93;9.90;;;;;;;6.34;89.75;100195.38;5113048;28;20286;-57
2022/11/26 06:34:32;;;;;;;15.53;10.00;;;;;;;6.36;88.90;100204.00;5113329;28;20282;-56
2022/11/26 06:36:59;;;;;;;13.07;9.30;;;;;;;6.36;88.31;100201.41;5112911;28;20198;-56
2022/11/26 06:39:26;;;;;;;20.47;9.27;;;;;;;6.34;87.81;100205.69;5113135;28;20199;-58
2022/11/26 06:41:52;;;;;;;9.37;7.47;;;;;;;6.40;87.41;100204.84;5113045;28;20195;-57
2022/11/26 06:44:21;;;;;;;9.10;7.10;;;;;;;6.41;87.55;100199.69;5112707;27;20199;-57
2022/11/26 06:46:48;;;;;;;9.93;7.27;;;;;;;6.54;86.33;100205.72;5112837;28;20202;-57
2022/11/26 06:49:14;;;;;;;7.53;6.40;;;;;;;6.52;85.78;100213.44;5112712;28;20201;-62
2022/11/26 06:51:41;;;;;;;6.77;6.13;;;;;;;6.55;85.23;100200.53;5112747;28;20611;-65
2022/11/26 06:54:08;;;;;;;11.00;6.67;;;;;;;6.49;85.06;100197.97;5112724;28;20202;-64
2022/11/26 06:56:35;;;;;;;8.33;7.47;;;;;;;6.56;85.09;100209.97;5113108;27;20195;-64
2022/11/26 06:59:02;;;;;;;7.53;6.60;;;;;;;6.55;85.03;100210.84;5112564;28;20199;-62
2022/11/26 07:01:31;;;;;;;12.70;7.00;;;;;;;6.60;85.64;100208.25;5112519;28;20186;-57
2022/11/26 07:03:58;;;;;;;8.30;6.80;;;;;;;6.60;85.76;100200.53;5111754;28;20674;-63
2022/11/26 07:06:26;;;;;;;10.47;6.77;;;;;;;6.77;85.48;100210.81;5112460;28;20195;-62
2022/11/26 07:08:55;;;;;;;8.70;7.03;;;;;;;6.84;85.25;100215.09;5112470;28;20194;-63
2022/11/26 07:11:24;;;;;;;10.07;7.50;;;;;;;6.96;85.48;100209.03;5112498;27;20680;-63
2022/11/26 07:13:51;;;;;;;9.67;6.97;;;;;;;7.01;85.82;100213.31;5112340;28;20217;-63
2022/11/26 07:16:19;;;;;;;9.87;7.23;;;;;;;7.11;85.38;100212.41;5112149;28;20225;-63
2022/11/26 07:18:50;;;;;;;8.97;6.50;;;;;;;7.20;85.30;100209.81;5111985;28;20228;-63
2022/11/26 07:21:30;;;;;;;8.50;6.77;;;;;;;7.27;84.44;100210.63;5113196;28;20199;-67
2022/11/26 07:23:58;;;;;;;9.80;6.57;;;;;;;7.32;83.68;100200.31;5112352;27;20194;-62
2022/11/26 07:26:25;;;;;;;7.73;6.93;;;;;;;7.48;83.83;100213.13;5112409;28;20194;-63
2022/11/26 07:28:52;;;;;;;11.07;7.03;;;;;;;7.62;84.03;100207.88;5112117;28;20186;-63
2022/11/26 07:31:21;;;;;;;17.03;6.27;;;;;;;7.58;83.65;100211.34;5112320;28;20713;-63
2022/11/26 07:33:50;;;;;;;10.17;6.20;;;;;;;7.69;83.10;100204.38;5112035;28;20205;-63
2022/11/26 07:36:27;;;;;;;9.30;6.80;;;;;;;7.71;83.47;100191.47;5112585;28;20199;-63
2022/11/26 07:38:54;;;;;;;14.73;7.93;;;;;;;7.90;83.54;100199.06;5111917;28;20673;-58
2022/11/26 07:41:31;;;;;;;9.37;6.20;;;;;;;8.01;82.28;100206.78;5112057;28;20186;-59
2022/11/26 07:43:58;;;;;;;37.00;15.53;;;;;;;8.09;82.58;100204.13;5097490;28;20209;-58
2022/11/26 07:46:29;;;;;;;19.53;11.87;;;;;;;8.07;84.03;100192.94;5107865;28;20187;-57
2022/11/26 07:48:58;;;;;;;14.47;10.47;;;;;;;8.18;83.54;100198.88;5110259;28;20658;-57
2022/11/26 07:51:27;;;;;;;11.27;8.87;;;;;;;8.25;84.17;100200.53;5111873;28;20604;-57
2022/11/26 07:53:54;;;;;;;8.10;7.37;;;;;;;8.39;84.48;100203.88;5111653;28;20202;-56
2022/11/26 07:56:21;;;;;;;10.87;8.87;;;;;;;8.48;85.05;100208.13;5111450;28;20282;-56
2022/11/26 07:58:49;;;;;;;10.93;9.40;;;;;;;8.45;85.99;100210.75;5111764;28;20230;-56
2022/11/26 08:01:18;;;;;;;10.57;9.03;;;;;;;8.48;85.91;100208.13;5111418;28;20189;-56
2022/11/26 08:03:47;;;;;;;17.77;9.43;;;;;;;8.47;86.01;100212.44;5111531;28;20278;-56
2022/11/26 08:06:18;;;;;;;14.93;11.10;;;;;;;8.59;85.93;100207.13;5111733;28;20198;-57
2022/11/26 08:08:45;;;;;;;13.63;9.77;;;;;;;8.69;85.32;100210.53;5111793;28;20659;-56
2022/11/26 08:11:14;;;;;;;12.00;7.97;;;;;;;8.78;85.48;100207.84;5111181;28;20222;-56
2022/11/26 08:13:42;;;;;;;11.20;8.97;;;;;;;8.86;83.59;100210.34;5111166;28;20205;-56
2022/11/26 08:16:10;;;;;;;9.10;7.97;;;;;;;8.89;83.17;100206.00;5110696;28;20293;-56
2022/11/26 08:18:37;;;;;;;58.33;28.17;;;;;;;8.89;81.59;100205.13;5110920;28;20317;-55
2022/11/26 08:21:04;;;;;;;18.57;10.57;;;;;;;8.81;80.83;100199.16;5111070;28;20190;-56
2022/11/26 08:23:33;;;;;;;64.03;34.87;;;;;;;8.86;79.95;100211.19;5110741;28;20267;-56
2022/11/26 08:26:05;;;;;;;20.63;12.17;;;;;;;8.94;79.42;100213.69;5110847;28;20777;-55
2022/11/26 08:28:32;;;;;;;21.53;13.00;;;;;;;8.95;79.42;100211.09;5111033;28;20237;-56
2022/11/26 08:31:02;;;;;;;12.33;9.87;;;;;;;9.02;78.32;100217.06;5110666;28;20617;-56
2022/11/26 08:33:29;;;;;;;13.00;9.03;;;;;;;9.07;78.02;100210.09;5110964;28;20670;-55
2022/11/26 08:35:56;;;;;;;10.97;9.47;;;;;;;9.18;77.19;100210.81;5110901;28;20666;-57
2022/11/26 08:38:23;;;;;;;10.77;9.63;;;;;;;9.20;77.08;100213.41;5110746;28;20277;-56
2022/11/26 08:40:53;;;;;;;7.37;6.67;;;;;;;9.26;77.62;100215.91;5110053;28;20655;-56
2022/11/26 08:43:20;;;;;;;10.90;7.57;;;;;;;9.31;77.58;100202.03;5110382;28;20226;-62
2022/11/26 08:45:53;;;;;;;8.40;7.37;;;;;;;9.33;78.34;100217.56;5110706;28;20212;-62
2022/11/26 08:48:20;;;;;;;9.23;8.33;;;;;;;9.39;77.76;100212.28;5110469;28;20267;-62
2022/11/26 08:50:47;;;;;;;6.97;6.27;;;;;;;9.46;77.40;100213.94;5110317;28;20221;-56
2022/11/26 08:53:14;;;;;;;10.87;9.20;;;;;;;9.50;77.28;100215.59;5110588;28;20701;-56
2022/11/26 08:55:41;;;;;;;7.70;6.57;;;;;;;9.59;76.53;100219.81;5110342;28;20198;-57
2022/11/26 08:58:09;;;;;;;10.03;6.70;;;;;;;9.63;77.31;100211.09;5110401;28;20202;-57
2022/11/26 09:00:36;;;;;;;7.93;6.23;;;;;;;9.65;76.63;100217.97;5110278;28;20285;-57
2022/11/26 09:03:03;;;;;;;7.87;6.40;;;;;;;9.72;76.30;100219.59;5110307;28;20281;-56
2022/11/26 09:05:31;;;;;;;5.93;5.33;;;;;;;9.74;75.66;100219.59;5109433;28;20191;-57
2022/11/26 09:07:58;;;;;;;6.33;5.73;;;;;;;9.82;75.05;100222.91;5110078;27;20660;-56
2022/11/26 09:10:25;;;;;;;8.20;5.40;;;;;;;9.78;74.92;100210.91;5109934;28;20632;-57
2022/11/26 09:12:52;;;;;;;9.20;6.17;;;;;;;9.99;75.89;100222.69;5110254;28;20289;-62
2022/11/26 09:15:20;;;;;;;10.00;6.63;;;;;;;10.05;74.73;100220.84;5110298;28;20216;-62
2022/11/26 09:17:47;;;;;;;9.03;7.37;;;;;;;10.05;74.91;100205.28;5110009;28;20237;-61
2022/11/26 09:20:14;;;;;;;7.03;6.43;;;;;;;10.24;74.35;100216.28;5110185;28;20653;-64
2022/11/26 09:22:41;;;;;;;9.40;8.27;;;;;;;10.26;73.97;100211.91;5110035;28;20191;-63
2022/11/26 09:25:09;;;;;;;14.20;10.60;;;;;;;10.28;73.54;100217.06;5109951;28;20596;-62
2022/11/26 09:27:38;;;;;;;8.40;7.47;;;;;;;10.26;73.42;100209.31;5109568;28;20484;-62
2022/11/26 09:30:07;;;;;;;6.80;6.20;;;;;;;10.30;72.92;100205.78;5109946;28;20210;-62
2022/11/26 09:32:36;;;;;;;7.17;6.47;;;;;;;10.34;72.70;100201.41;5109789;28;20222;-62
2022/11/26 09:35:03;;;;;;;6.20;5.70;;;;;;;10.36;72.67;100210.03;5109763;28;20225;-57
2022/11/26 09:37:31;;;;;;;8.27;6.57;;;;;;;10.46;72.01;100201.19;5109568;28;20198;-57
2022/11/26 09:39:58;;;;;;;7.43;6.83;;;;;;;10.44;71.94;100196.03;5110219;28;20589;-56
2022/11/26 09:42:36;;;;;;;8.33;7.20;;;;;;;10.46;71.53;100202.06;5109816;28;20194;-57
2022/11/26 09:45:12;;;;;;;7.83;7.10;;;;;;;10.48;71.82;100192.50;5110201;28;20300;-56
2022/11/26 09:47:42;;;;;;;6.87;6.37;;;;;;;10.54;71.45;100183.72;5109900;28;20220;-56
2022/11/26 09:50:23;;;;;;;7.93;6.23;;;;;;;10.56;70.69;100179.38;5110150;28;20291;-57
2022/11/26 09:52:54;;;;;;;7.70;6.33;;;;;;;10.64;70.30;100181.81;5109938;28;20187;-56
2022/11/26 09:55:24;;;;;;;6.20;5.60;;;;;;;10.64;69.61;100177.47;5109694;28;20670;-56
2022/11/26 09:57:59;;;;;;;5.90;5.20;;;;;;;10.61;69.09;100166.31;5109955;28;20195;-56
2022/11/26 10:00:29;;;;;;;6.27;5.70;;;;;;;10.74;69.05;100176.44;5109650;28;20190;-56
2022/11/26 10:02:58;;;;;;;6.97;5.07;;;;;;;10.76;68.47;100173.81;5109714;28;20285;-56
2022/11/26 10:05:39;;;;;;;5.70;5.10;;;;;;;10.80;68.24;100157.28;5109676;28;20202;-56
2022/11/26 10:08:22;;;;;;;5.57;5.07;;;;;;;10.82;68.09;100169.38;5109728;28;20197;-56
2022/11/26 10:10:54;;;;;;;6.60;6.00;;;;;;;10.95;68.50;100162.16;5089756;28;20230;-55
2022/11/26 10:13:30;;;;;;;6.60;5.23;;;;;;;11.07;67.73;100158.47;5089301;28;20199;-55
2022/11/26 10:16:07;;;;;;;5.10;4.57;;;;;;;11.06;67.06;100157.59;5089215;28;20195;-59
2022/11/26 10:18:45;;;;;;;5.90;5.40;;;;;;;11.06;66.43;100159.38;5088535;28;20231;-59
2022/11/26 10:21:20;;;;;;;5.60;5.10;;;;;;;11.16;66.92;100153.09;5089541;28;20751;-59
2022/11/26 10:23:56;;;;;;;7.47;6.63;;;;;;;11.21;67.16;100157.31;5089408;28;20278;-58
2022/11/26 10:26:28;;;;;;;18.17;12.17;;;;;;;11.32;66.75;100151.00;5089523;28;20234;-62
2022/11/26 10:29:13;;;;;;;12.97;9.97;;;;;;;11.24;66.42;100140.78;5089139;28;20195;-62
2022/11/26 10:31:42;;;;;;;12.80;9.50;;;;;;;11.31;66.35;100152.75;5088776;28;20617;-62
2022/11/26 10:34:14;;;;;;;9.83;7.30;;;;;;;11.30;66.35;100148.44;5088898;28;20199;-61
2022/11/26 10:36:44;;;;;;;6.93;6.23;;;;;;;11.35;65.74;100146.63;5088949;28;20205;-61
2022/11/26 10:39:14;;;;;;;6.73;6.03;;;;;;;11.31;66.10;100144.97;5097600;28;20643;-61
2022/11/26 10:41:42;;;;;;;8.57;6.63;;;;;;;11.34;66.13;100142.31;5109163;28;20286;-61
2022/11/26 10:44:28;;;;;;;13.27;8.00;;;;;;;11.39;66.69;100139.63;5111456;28;20199;-60
2022/11/26 10:46:57;;;;;;;9.37;8.47;;;;;;;11.34;66.63;100116.31;5111082;28;20617;-60
2022/11/26 10:49:27;;;;;;;7.20;6.03;;;;;;;11.53;66.38;100138.41;5109498;28;20190;-62
2022/11/26 10:51:58;;;;;;;5.53;5.07;;;;;;;11.50;66.42;100133.28;5112100;28;20221;-62
2022/11/26 10:54:29;;;;;;;5.00;4.60;;;;;;;11.52;65.98;100131.47;5112818;28;20629;-60
2022/11/26 10:57:01;;;;;;;5.40;4.90;;;;;;;11.53;64.80;100127.13;5112884;28;20205;-62
2022/11/26 10:59:33;;;;;;;26.43;15.40;;;;;;;11.55;65.08;100130.56;5113063;28;20489;-62
2022/11/26 11:02:04;;;;;;;24.43;15.47;;;;;;;11.56;64.95;100134.88;5112880;28;20199;-59
2022/11/26 11:04:39;;;;;;;19.93;13.00;;;;;;;11.62;64.78;100132.97;5112191;28;20632;-57
2022/11/26 11:07:06;;;;;;;18.23;13.70;;;;;;;11.65;64.68;100129.47;5108861;28;20194;-57
2022/11/26 11:09:35;;;;;;;15.77;12.23;;;;;;;11.69;65.60;100132.84;5111172;28;20187;-62
2022/11/26 11:12:24;;;;;;;19.43;12.83;;;;;;;11.58;66.10;100113.16;5112200;28;20221;-59
2022/11/26 11:14:52;;;;;;;19.37;13.67;;;;;;;11.78;65.53;100137.88;5107893;28;20245;-57
2022/11/26 11:17:40;;;;;;;21.93;14.13;;;;;;;11.80;65.77;100121.34;5112218;28;20202;-56
2022/11/26 11:20:32;;;;;;;19.77;13.90;;;;;;;11.83;65.76;100123.00;5107303;28;20218;-57
2022/11/26 11:23:21;;;;;;;17.90;13.10;;;;;;;11.88;65.15;100121.16;5112447;28;20277;-58
2022/11/26 11:25:58;;;;;;;16.23;11.80;;;;;;;11.81;65.35;100127.41;5111898;28;20199;-57
2022/11/26 11:28:27;;;;;;;10.10;8.60;;;;;;;11.93;64.57;100127.09;5112726;28;20198;-58
2022/11/26 11:31:03;;;;;;;9.20;7.70;;;;;;;11.98;63.92;100120.03;5112170;28;20194;-60
2022/11/26 11:33:30;;;;;;;9.00;7.07;;;;;;;11.98;62.98;100122.63;5111998;28;20201;-56
2022/11/26 11:36:02;;;;;;;8.37;6.60;;;;;;;11.84;63.02;100120.38;5112251;28;20298;-57
2022/11/26 11:38:31;;;;;;;7.10;6.50;;;;;;;11.91;62.61;100118.47;5112169;28;20195;-55
2022/11/26 11:41:01;;;;;;;10.37;7.63;;;;;;;11.91;62.92;100110.66;5111809;28;20195;-60
2022/11/26 11:43:28;;;;;;;7.87;6.70;;;;;;;11.95;62.62;100109.72;5112173;28;20671;-61